Time;durP1;ratioP1;P1;durP2;ratioP2;P2;SDS_P1;SDS_P2;PMS_P1;PMS_P2;Temp;Humidity;BMP_temperature;BMP_pressure;BME280_temperature;BME280_humidity;BME280_pressure;Samples;Min_cycle;Max_cycle;Signal;HPM_P1;HPM_P2
2022/01/13 00:02:14;;;;;;;28.25;16.23;;;0.00;99.90;;;;;;5030476;28;20159;-92
2022/01/13 00:04:40;;;;;;;30.60;15.85;;;0.00;99.90;;;;;;5029797;28;20123;-92
2022/01/13 00:07:06;;;;;;;28.50;15.05;;;0.10;99.90;;;;;;5029835;28;20618;-92
2022/01/13 00:09:32;;;;;;;27.75;15.32;;;0.00;99.90;;;;;;5031546;28;20025;-91
2022/01/13 00:11:58;;;;;;;30.80;14.73;;;0.10;99.90;;;;;;5031113;28;20024;-91
2022/01/13 00:19:47;;;;;;;27.48;14.43;;;0.00;99.90;;;;;;5034507;28;20063;-91
2022/01/13 00:22:27;;;;;;;26.98;14.23;;;-0.10;99.90;;;;;;5026980;28;20021;-90
2022/01/13 00:24:57;;;;;;;25.27;13.77;;;-0.10;99.90;;;;;;5033278;28;20026;-90
2022/01/13 00:27:25;;;;;;;28.73;15.47;;;-0.10;99.90;;;;;;5034722;28;20036;-89
2022/01/13 00:29:51;;;;;;;28.92;14.55;;;-0.10;99.90;;;;;;5032920;28;20025;-90
2022/01/13 00:32:19;;;;;;;24.73;14.77;;;-0.10;99.90;;;;;;5031723;28;20032;-89
2022/01/13 00:34:45;;;;;;;27.85;14.73;;;-0.20;99.90;;;;;;5032298;28;20033;-89
2022/01/13 00:37:10;;;;;;;29.38;15.05;;;-0.10;99.90;;;;;;5031239;28;20037;-89
2022/01/13 00:39:36;;;;;;;31.08;15.35;;;-0.20;99.90;;;;;;5033484;28;20129;-88
2022/01/13 00:42:02;;;;;;;30.52;15.95;;;-0.30;99.90;;;;;;5031657;28;20033;-89
2022/01/13 00:44:34;;;;;;;32.97;16.73;;;-0.40;99.90;;;;;;5032288;28;20066;-89
2022/01/13 00:47:01;;;;;;;33.10;17.63;;;-0.30;99.90;;;;;;5031686;28;20026;-90
2022/01/13 00:49:27;;;;;;;35.38;18.45;;;-0.50;99.90;;;;;;5032218;28;20574;-89
2022/01/13 00:51:53;;;;;;;37.80;19.30;;;-0.50;99.90;;;;;;5032898;28;20487;-88
2022/01/13 00:54:19;;;;;;;42.63;21.13;;;-0.70;99.90;;;;;;5030579;28;20210;-88
2022/01/13 00:56:45;;;;;;;39.08;20.27;;;-0.80;99.90;;;;;;5031955;28;20037;-88
2022/01/13 00:59:14;;;;;;;38.60;19.70;;;-0.60;99.90;;;;;;5031822;28;20426;-89
2022/01/13 01:01:43;;;;;;;38.17;20.17;;;-0.50;99.90;;;;;;5030798;28;20034;-88
2022/01/13 01:04:09;;;;;;;36.30;18.90;;;-0.50;99.90;;;;;;5030786;28;20033;-88
2022/01/13 01:06:36;;;;;;;34.67;19.08;;;-0.60;99.90;;;;;;5033223;28;20079;-88
2022/01/13 01:09:03;;;;;;;35.70;19.10;;;-0.60;99.90;;;;;;5031360;28;20095;-89
2022/01/13 01:11:29;;;;;;;43.25;19.80;;;-0.50;99.90;;;;;;5031146;28;20451;-88
2022/01/13 01:13:57;;;;;;;39.60;20.65;;;-0.50;99.90;;;;;;5029810;28;20507;-88
2022/01/13 01:16:25;;;;;;;40.53;20.77;;;-0.60;99.90;;;;;;5030924;28;20048;-89
2022/01/13 01:19:02;;;;;;;42.97;19.95;;;-0.50;99.90;;;;;;5020776;28;20036;-88
2022/01/13 01:29:17;;;;;;;41.78;19.63;;;-0.60;99.90;;;;;;5031118;28;20025;-88
2022/01/13 01:31:48;;;;;;;41.97;20.83;;;-0.60;99.90;;;;;;5029935;28;20022;-87
2022/01/13 01:36:41;;;;;;;38.92;18.45;;;-0.40;99.90;;;;;;5033014;28;20024;-88
2022/01/13 01:39:08;;;;;;;39.17;18.38;;;-0.40;99.90;;;;;;5039652;28;20133;-87
2022/01/13 01:41:39;;;;;;;34.03;17.05;;;-0.40;99.90;;;;;;5030918;28;20087;-87
2022/01/13 01:44:06;;;;;;;;;;;-0.30;99.90;;;;;;5030709;28;20061;-88
2022/01/13 01:46:35;;;;;;;32.42;18.10;;;-0.50;99.90;;;;;;5031003;28;19959;-87
2022/01/13 01:49:08;;;;;;;36.83;17.05;;;-0.40;99.90;;;;;;5029980;28;20028;-87
2022/01/13 01:51:33;;;;;;;34.83;17.45;;;-0.30;99.90;;;;;;5030709;28;20026;-87
2022/01/13 01:53:59;;;;;;;33.40;17.38;;;-0.20;99.90;;;;;;5030372;28;20498;-88
2022/01/13 01:56:25;;;;;;;36.50;17.30;;;-0.20;99.90;;;;;;5029224;28;20037;-87
2022/01/13 01:58:50;;;;;;;38.78;18.52;;;-0.40;99.90;;;;;;5029763;28;20079;-87
2022/01/13 02:01:16;;;;;;;34.58;17.55;;;-0.30;99.90;;;;;;5028694;28;20704;-88
2022/01/13 02:03:42;;;;;;;36.28;17.10;;;-0.30;99.90;;;;;;5030000;28;20156;-88
2022/01/13 02:06:08;;;;;;;35.88;17.73;;;-0.50;99.90;;;;;;5024862;28;20108;-88
2022/01/13 02:08:33;;;;;;;31.45;17.88;;;-0.30;99.90;;;;;;5029938;28;20029;-87
2022/01/13 02:10:59;;;;;;;32.13;16.55;;;-0.20;99.90;;;;;;5024431;28;20554;-87
2022/01/13 02:13:33;;;;;;;35.30;17.92;;;-0.10;99.90;;;;;;5029373;28;20108;-86
2022/01/13 02:16:02;;;;;;;36.92;17.95;;;-0.10;99.90;;;;;;5029027;28;20029;-87
2022/01/13 02:18:33;;;;;;;33.25;16.95;;;-0.10;99.90;;;;;;5030057;28;20116;-85
2022/01/13 02:21:00;;;;;;;34.40;17.13;;;-0.20;99.90;;;;;;5029525;28;20087;-85
2022/01/13 02:23:39;;;;;;;34.10;17.98;;;-0.30;99.90;;;;;;5028245;28;20044;-85
2022/01/13 02:26:07;;;;;;;31.13;17.20;;;-0.20;99.90;;;;;;5023127;28;20036;-86
2022/01/13 02:28:34;;;;;;;34.55;17.20;;;-0.20;99.90;;;;;;5029434;28;20029;-85
2022/01/13 02:31:00;;;;;;;32.80;17.20;;;-0.10;99.90;;;;;;5027484;28;20022;-85
2022/01/13 02:33:26;;;;;;;31.85;17.65;;;0.00;99.90;;;;;;5029317;28;20026;-85
2022/01/13 02:35:52;;;;;;;34.05;17.17;;;0.00;99.90;;;;;;5026962;28;20087;-84
2022/01/13 02:38:18;;;;;;;33.55;18.17;;;0.10;99.90;;;;;;5028888;28;20018;-84
2022/01/13 02:40:43;;;;;;;37.47;18.23;;;0.00;99.90;;;;;;5029368;28;20569;-85
2022/01/13 02:43:10;;;;;;;38.30;17.70;;;-0.10;99.90;;;;;;5028020;28;20037;-85
2022/01/13 02:45:39;;;;;;;37.92;18.45;;;0.00;99.90;;;;;;5030791;28;20040;-85
2022/01/13 02:50:52;;;;;;;32.88;18.05;;;0.00;99.90;;;;;;5028311;28;20042;-86
2022/01/13 02:53:17;;;;;;;35.95;18.25;;;0.10;99.90;;;;;;5027114;28;20021;-85
2022/01/13 02:55:43;;;;;;;44.50;19.40;;;0.10;99.90;;;;;;5028890;28;20029;-86
2022/01/13 02:58:13;;;;;;;39.50;18.90;;;0.00;99.90;;;;;;5028695;28;20112;-87
2022/01/13 03:00:40;;;;;;;35.28;17.35;;;0.20;99.90;;;;;;5030949;28;20116;-85
2022/01/13 03:03:06;;;;;;;36.13;17.73;;;0.20;99.90;;;;;;5028695;28;20031;-86
2022/01/13 03:05:36;;;;;;;38.15;18.98;;;0.30;99.90;;;;;;5028289;28;20041;-85
2022/01/13 03:08:02;;;;;;;37.83;18.77;;;0.40;99.90;;;;;;5027032;28;20199;-85
2022/01/13 03:10:28;;;;;;;36.33;17.67;;;0.50;99.90;;;;;;5028777;28;20468;-85
2022/01/13 03:12:56;;;;;;;35.60;18.05;;;0.50;99.90;;;;;;5029097;28;20087;-86
2022/01/13 03:15:21;;;;;;;34.38;17.45;;;0.60;99.90;;;;;;5030164;28;20026;-87
2022/01/13 03:17:47;;;;;;;32.72;17.30;;;0.60;99.90;;;;;;5028059;28;20071;-87
2022/01/13 03:20:13;;;;;;;35.80;16.75;;;0.60;99.90;;;;;;5028754;28;20505;-88
2022/01/13 03:22:38;;;;;;;35.58;18.38;;;0.50;99.90;;;;;;5028838;28;20022;-88
2022/01/13 03:25:05;;;;;;;32.38;16.83;;;0.40;99.90;;;;;;5027177;28;20029;-87
2022/01/13 03:27:34;;;;;;;34.25;17.08;;;0.60;99.90;;;;;;5030135;28;20029;-88
2022/01/13 03:30:06;;;;;;;35.05;17.30;;;0.70;99.90;;;;;;5027119;28;20056;-87
2022/01/13 03:32:33;;;;;;;36.35;18.02;;;0.50;99.90;;;;;;5028237;28;20034;-87
2022/01/13 03:34:59;;;;;;;31.63;15.95;;;0.40;99.90;;;;;;5028381;28;20038;-87
2022/01/13 03:37:25;;;;;;;30.65;18.05;;;0.60;99.90;;;;;;5028355;28;20414;-88
2022/01/13 03:39:51;;;;;;;37.40;16.48;;;0.60;99.90;;;;;;5028577;28;20057;-87
2022/01/13 03:42:17;;;;;;;35.67;16.60;;;0.40;99.90;;;;;;5027272;28;20064;-87
2022/01/13 03:44:42;;;;;;;32.60;17.42;;;0.40;99.90;;;;;;5023911;28;20029;-88
2022/01/13 03:47:09;;;;;;;35.55;18.20;;;0.30;99.90;;;;;;5026661;28;20527;-88
2022/01/13 03:49:35;;;;;;;39.05;18.02;;;0.40;99.90;;;;;;5026486;28;20028;-88
2022/01/13 03:52:13;;;;;;;31.60;15.93;;;0.30;99.90;;;;;;5019765;28;20019;-85
2022/01/13 03:54:39;;;;;;;35.45;17.23;;;0.50;99.90;;;;;;5028209;28;20029;-85
2022/01/13 03:57:44;;;;;;;33.75;16.88;;;0.40;99.90;;;;;;5027772;28;20025;-85
2022/01/13 04:00:22;;;;;;;33.17;16.73;;;0.50;99.90;;;;;;5027129;28;20030;-86
2022/01/13 04:02:47;;;;;;;34.03;17.73;;;0.40;99.90;;;;;;5025221;28;20561;-86
2022/01/13 04:05:13;;;;;;;42.22;19.67;;;0.30;99.90;;;;;;5027496;28;20033;-86
2022/01/13 04:07:39;;;;;;;35.83;17.73;;;0.30;99.90;;;;;;5027323;28;20017;-87
2022/01/13 04:10:44;;;;;;;37.25;17.00;;;0.50;99.90;;;;;;5027775;28;20044;-86
2022/01/13 04:13:22;;;;;;;38.90;18.42;;;0.50;99.90;;;;;;5026586;28;20479;-85
2022/01/13 04:15:49;;;;;;;37.53;16.25;;;0.60;99.90;;;;;;5028229;28;20060;-87
2022/01/13 04:18:14;;;;;;;32.38;16.73;;;0.60;99.90;;;;;;5027391;28;20454;-87
2022/01/13 04:20:40;;;;;;;31.70;15.55;;;0.60;99.90;;;;;;5027879;28;20482;-86
2022/01/13 04:23:06;;;;;;;33.60;15.20;;;0.80;99.90;;;;;;5027769;28;20510;-86
2022/01/13 04:25:34;;;;;;;31.55;15.13;;;0.70;99.90;;;;;;5026192;28;20026;-86
2022/01/13 04:28:02;;;;;;;37.50;15.05;;;0.70;99.90;;;;;;5028355;28;20053;-87
2022/01/13 04:33:09;;;;;;;31.23;14.43;;;0.90;99.90;;;;;;5027859;28;20021;-86
2022/01/13 04:35:34;;;;;;;35.95;14.82;;;0.90;99.90;;;;;;5028024;28;20106;-86
2022/01/13 04:38:00;;;;;;;32.13;13.75;;;1.00;99.90;;;;;;5027507;28;20426;-86
2022/01/13 04:40:26;;;;;;;29.67;14.52;;;1.10;99.90;;;;;;5027512;28;20081;-87
2022/01/13 04:42:55;;;;;;;29.73;12.40;;;1.00;99.90;;;;;;5028308;28;20018;-87
2022/01/13 04:45:21;;;;;;;25.45;12.27;;;1.10;99.90;;;;;;5029037;28;20072;-87
2022/01/13 04:47:49;;;;;;;30.17;12.05;;;1.10;99.90;;;;;;5021746;28;20594;-87
2022/01/13 04:50:15;;;;;;;31.38;11.68;;;1.20;99.90;;;;;;5027512;28;20029;-86
2022/01/13 04:52:40;;;;;;;25.00;12.15;;;1.20;99.90;;;;;;5026356;28;20530;-85
2022/01/13 04:55:12;;;;;;;31.02;13.90;;;1.10;99.90;;;;;;5027601;28;20040;-87
2022/01/13 04:57:38;;;;;;;;;;;1.10;99.90;;;;;;5030274;28;20121;-87
2022/01/13 05:00:07;;;;;;;23.13;11.25;;;1.10;99.90;;;;;;5029680;28;19979;-86
2022/01/13 05:02:32;;;;;;;28.63;12.65;;;1.10;99.90;;;;;;5030661;28;20243;-86
2022/01/13 05:04:58;;;;;;;25.52;11.98;;;1.00;99.90;;;;;;5031046;28;20575;-86
2022/01/13 05:07:24;;;;;;;25.38;13.25;;;1.10;99.90;;;;;;5029756;28;20087;-85
2022/01/13 05:09:49;;;;;;;28.08;12.60;;;1.10;99.90;;;;;;5022638;28;20022;-87
2022/01/13 05:12:17;;;;;;;24.77;11.70;;;1.10;99.90;;;;;;5032404;28;20514;-86
2022/01/13 05:14:45;;;;;;;27.52;11.63;;;1.10;99.90;;;;;;5026132;28;20032;-87
2022/01/13 05:17:33;;;;;;;28.55;11.80;;;1.10;99.90;;;;;;5030765;28;20030;-87
2022/01/13 05:20:12;;;;;;;24.52;10.85;;;1.10;99.90;;;;;;5030577;28;20029;-88
2022/01/13 05:22:38;;;;;;;28.17;11.90;;;1.00;99.90;;;;;;5018784;28;20022;-88
2022/01/13 05:25:04;;;;;;;30.98;11.18;;;1.10;99.90;;;;;;5029613;28;20545;-88
2022/01/13 05:27:30;;;;;;;26.95;11.57;;;1.10;99.90;;;;;;5032658;28;20026;-87
2022/01/13 05:29:58;;;;;;;27.08;10.68;;;1.10;99.90;;;;;;5030889;28;20614;-88
2022/01/13 05:32:23;;;;;;;22.33;10.50;;;1.20;99.90;;;;;;5031001;28;20510;-87
2022/01/13 05:34:49;;;;;;;24.75;10.93;;;1.20;99.90;;;;;;5030459;28;20034;-87
2022/01/13 05:37:15;;;;;;;22.52;10.73;;;1.20;99.90;;;;;;5029247;28;20574;-88
2022/01/13 05:39:40;;;;;;;27.65;11.30;;;1.20;99.90;;;;;;5032340;28;20120;-88
2022/01/13 05:42:06;;;;;;;27.08;11.02;;;1.30;99.90;;;;;;5030695;28;20031;-88
2022/01/13 05:44:38;;;;;;;28.90;11.07;;;1.30;99.90;;;;;;5030710;28;20037;-89
2022/01/13 05:47:03;;;;;;;;;;;1.30;99.90;;;;;;5028788;28;20029;-89
2022/01/13 05:49:29;;;;;;;21.65;8.73;;;1.20;99.90;;;;;;5031194;28;19909;-89
2022/01/13 05:51:55;;;;;;;24.23;10.65;;;1.10;99.90;;;;;;5030884;28;20479;-87
2022/01/13 05:54:20;;;;;;;18.67;8.68;;;1.20;99.90;;;;;;5031235;28;20017;-88
2022/01/13 05:56:46;;;;;;;20.40;8.02;;;1.20;99.90;;;;;;5030456;28;20057;-88
2022/01/13 05:59:12;;;;;;;22.17;9.32;;;1.20;99.90;;;;;;5029956;28;20089;-88
2022/01/13 06:01:38;;;;;;;21.60;8.75;;;1.10;99.90;;;;;;5030204;28;20021;-90
2022/01/13 06:04:03;;;;;;;24.70;9.70;;;1.00;99.90;;;;;;5031452;28;20218;-90
2022/01/13 06:06:29;;;;;;;19.38;9.15;;;0.90;99.90;;;;;;5031849;28;20093;-90
2022/01/13 06:08:55;;;;;;;26.10;10.07;;;0.90;99.90;;;;;;5022267;28;20032;-91
2022/01/13 06:11:22;;;;;;;22.95;10.10;;;1.10;99.90;;;;;;5030055;28;20021;-91
2022/01/13 06:13:49;;;;;;;22.90;9.60;;;1.10;99.90;;;;;;5029535;28;20052;-87
2022/01/13 06:16:15;;;;;;;23.15;9.63;;;1.20;99.90;;;;;;5030103;28;20128;-88
2022/01/13 06:18:41;;;;;;;21.15;8.90;;;1.20;99.90;;;;;;5032129;28;20033;-89
2022/01/13 06:21:07;;;;;;;22.67;10.52;;;1.20;99.90;;;;;;5030029;28;20036;-89
2022/01/13 06:23:33;;;;;;;19.90;8.70;;;1.30;99.90;;;;;;5031806;28;20112;-90
2022/01/13 06:25:59;;;;;;;21.80;9.23;;;1.30;99.90;;;;;;5030487;28;20400;-89
2022/01/13 06:28:25;;;;;;;22.17;9.55;;;1.30;99.90;;;;;;5031177;28;20464;-90
2022/01/13 06:30:50;;;;;;;25.10;10.77;;;1.30;99.90;;;;;;5031580;28;20487;-90
2022/01/13 06:33:16;;;;;;;21.10;9.02;;;1.30;99.90;;;;;;5031958;28;20028;-90
2022/01/13 06:35:42;;;;;;;18.55;8.23;;;1.40;99.90;;;;;;5029767;28;20033;-89
2022/01/13 06:38:07;;;;;;;23.40;9.80;;;1.40;99.90;;;;;;5030745;28;20499;-89
2022/01/13 06:40:33;;;;;;;23.00;11.00;;;1.20;99.90;;;;;;5030961;28;20578;-87
2022/01/13 06:42:59;;;;;;;24.08;10.60;;;1.30;99.90;;;;;;5029695;28;20029;-89
2022/01/13 06:45:25;;;;;;;24.52;9.70;;;1.20;99.90;;;;;;5021350;28;20533;-88
2022/01/13 06:47:51;;;;;;;24.73;10.68;;;1.10;99.90;;;;;;5030175;28;20025;-88
2022/01/13 06:50:17;;;;;;;23.63;10.07;;;1.10;99.90;;;;;;5029517;28;20028;-89
2022/01/13 06:52:44;;;;;;;26.80;11.25;;;1.10;99.90;;;;;;5030427;28;20072;-89
2022/01/13 06:55:10;;;;;;;27.48;11.63;;;1.10;99.90;;;;;;5030881;28;20164;-94
2022/01/13 06:57:37;;;;;;;30.63;12.52;;;0.90;99.90;;;;;;5030307;28;20112;-90
2022/01/13 07:00:04;;;;;;;30.75;11.75;;;0.80;99.90;;;;;;5030322;28;20112;-92
2022/01/13 07:02:31;;;;;;;30.48;11.43;;;0.80;99.90;;;;;;5028721;28;20072;-84
2022/01/13 07:04:57;;;;;;;27.90;11.30;;;0.80;99.90;;;;;;5028564;28;20501;-79
2022/01/13 07:07:22;;;;;;;29.60;11.82;;;0.90;99.90;;;;;;5028379;28;20064;-79
2022/01/13 07:09:48;;;;;;;29.00;12.10;;;0.80;99.90;;;;;;5027894;28;20025;-79
2022/01/13 07:12:14;;;;;;;28.95;12.18;;;0.90;99.90;;;;;;5027901;28;20108;-79
2022/01/13 07:14:39;;;;;;;28.27;12.15;;;0.70;99.90;;;;;;5028423;28;20021;-79
2022/01/13 07:17:05;;;;;;;29.63;11.88;;;0.60;99.90;;;;;;5026968;28;20501;-79
2022/01/13 07:19:31;;;;;;;29.00;12.10;;;0.70;99.90;;;;;;5027762;28;20029;-79
2022/01/13 07:21:57;;;;;;;30.80;13.45;;;0.60;99.90;;;;;;5028039;28;20040;-79
2022/01/13 07:24:23;;;;;;;27.70;11.77;;;0.30;99.90;;;;;;5029225;28;20403;-79
2022/01/13 07:26:48;;;;;;;30.67;12.45;;;0.50;99.90;;;;;;5026421;28;20112;-80
2022/01/13 07:29:14;;;;;;;29.02;11.95;;;0.50;99.90;;;;;;5026672;28;20379;-76
2022/01/13 07:31:40;;;;;;;28.33;12.05;;;0.60;99.90;;;;;;5020662;28;20026;-78
2022/01/13 07:34:06;;;;;;;29.17;12.15;;;0.80;99.90;;;;;;5026681;28;20361;-80
2022/01/13 07:36:33;;;;;;;24.80;11.40;;;0.80;99.90;;;;;;5029416;28;20026;-79
2022/01/13 07:38:58;;;;;;;25.65;11.88;;;0.80;99.90;;;;;;5027198;28;20553;-82
2022/01/13 07:41:24;;;;;;;27.40;11.85;;;0.90;99.90;;;;;;5026987;28;20034;-80
2022/01/13 07:43:54;;;;;;;25.73;10.95;;;0.90;99.90;;;;;;5017406;28;20113;-80
2022/01/13 07:46:22;;;;;;;26.33;11.90;;;0.80;99.90;;;;;;5027281;28;20033;-81
2022/01/13 07:48:47;;;;;;;27.38;11.77;;;0.80;99.90;;;;;;5027003;28;20136;-81
2022/01/13 07:51:13;;;;;;;26.73;11.95;;;0.80;99.90;;;;;;5026740;28;20049;-83
2022/01/13 07:53:39;;;;;;;29.42;11.82;;;0.80;99.90;;;;;;5026937;28;20049;-85
2022/01/13 07:56:05;;;;;;;27.10;11.07;;;0.80;99.90;;;;;;5025399;28;20549;-79
2022/01/13 07:58:30;;;;;;;31.88;11.43;;;0.90;99.90;;;;;;5026348;28;20120;-81
2022/01/13 08:00:56;;;;;;;30.58;12.68;;;0.80;99.90;;;;;;5026166;28;20083;-81
2022/01/13 08:03:22;;;;;;;26.80;11.82;;;0.80;99.90;;;;;;5029276;28;20490;-80
2022/01/13 08:05:47;;;;;;;33.38;12.88;;;1.00;99.90;;;;;;5025230;28;20037;-84
2022/01/13 08:08:13;;;;;;;35.42;14.15;;;0.90;99.90;;;;;;5025645;28;20060;-83
2022/01/13 08:10:39;;;;;;;31.25;12.18;;;0.80;99.90;;;;;;5026369;28;20038;-80
2022/01/13 08:13:04;;;;;;;32.97;12.05;;;0.90;99.90;;;;;;5025678;28;20507;-85
2022/01/13 08:15:30;;;;;;;26.48;12.13;;;1.00;99.90;;;;;;5026183;28;20521;-80
2022/01/13 08:20:40;;;;;;;27.77;10.82;;;1.00;99.90;;;;;;5024815;28;20056;-80
2022/01/13 08:23:06;;;;;;;33.85;12.27;;;1.00;99.90;;;;;;5015494;28;20495;-86
2022/01/13 08:25:32;;;;;;;29.58;13.60;;;1.10;99.90;;;;;;5010854;28;20112;-86
2022/01/13 08:27:58;;;;;;;26.45;11.70;;;1.10;99.90;;;;;;5028016;28;20100;-80
2022/01/13 08:30:24;;;;;;;27.85;11.18;;;1.20;99.90;;;;;;5026715;28;20030;-81
2022/01/13 08:32:50;;;;;;;31.50;11.68;;;1.20;99.90;;;;;;5021413;28;20079;-80
2022/01/13 08:35:16;;;;;;;30.48;11.70;;;1.20;99.90;;;;;;5018291;28;20092;-77
2022/01/13 08:37:42;;;;;;;27.80;10.63;;;1.20;99.90;;;;;;5029395;28;20494;-84
2022/01/13 08:40:11;;;;;;;36.95;13.57;;;1.10;99.90;;;;;;5029931;28;20053;-82
2022/01/13 08:42:37;;;;;;;38.97;15.30;;;1.00;99.90;;;;;;5032162;28;20029;-89
2022/01/13 08:45:05;;;;;;;35.33;14.25;;;1.00;99.90;;;;;;5019431;28;20078;-88
2022/01/13 08:47:30;;;;;;;30.83;14.85;;;1.00;99.90;;;;;;5027662;28;20030;-80
2022/01/13 08:49:56;;;;;;;34.35;14.73;;;1.10;99.90;;;;;;5027351;28;20028;-82
2022/01/13 08:52:23;;;;;;;38.08;13.57;;;1.10;99.90;;;;;;5029549;28;20053;-82
2022/01/13 08:54:50;;;;;;;35.50;14.15;;;1.20;99.90;;;;;;5023872;28;20075;-84
2022/01/13 08:57:16;;;;;;;32.53;12.40;;;1.30;99.90;;;;;;5032551;28;20052;-84
2022/01/13 08:59:41;;;;;;;30.83;13.20;;;1.20;99.90;;;;;;5030593;28;20402;-88
2022/01/13 09:02:07;;;;;;;30.23;12.57;;;1.20;99.90;;;;;;5028994;28;20510;-83
2022/01/13 09:04:33;;;;;;;32.55;13.90;;;1.30;99.90;;;;;;5027859;28;20167;-83
2022/01/13 09:06:58;;;;;;;32.78;12.98;;;1.20;99.90;;;;;;5029144;28;20056;-84
2022/01/13 09:09:24;;;;;;;31.30;12.25;;;1.20;99.90;;;;;;5031785;28;20555;-85
2022/01/13 09:11:50;;;;;;;31.65;13.50;;;1.30;99.90;;;;;;5029338;28;20033;-87
2022/01/13 09:14:17;;;;;;;34.63;13.77;;;1.30;99.90;;;;;;5027342;28;20060;-83
2022/01/13 09:16:46;;;;;;;31.27;13.00;;;1.30;99.90;;;;;;5030447;28;20021;-88
2022/01/13 09:19:13;;;;;;;36.83;14.32;;;1.40;99.90;;;;;;5030275;28;20033;-85
2022/01/13 09:21:43;;;;;;;36.92;13.30;;;1.50;99.90;;;;;;5030811;28;20029;-82
2022/01/13 09:24:12;;;;;;;30.88;12.70;;;1.60;99.90;;;;;;5028871;28;20033;-83
2022/01/13 09:26:38;;;;;;;29.75;12.27;;;1.60;99.90;;;;;;5028538;28;20033;-84
2022/01/13 09:29:08;;;;;;;34.17;13.10;;;1.60;99.90;;;;;;5027775;28;20052;-85
2022/01/13 09:31:36;;;;;;;30.58;12.38;;;1.70;99.90;;;;;;5019532;28;20025;-85
2022/01/13 09:34:03;;;;;;;28.63;12.88;;;1.80;99.90;;;;;;5028386;28;20026;-86
2022/01/13 09:36:30;;;;;;;36.10;12.50;;;1.80;99.90;;;;;;5031118;28;20029;-83
2022/01/13 09:38:59;;;;;;;27.50;12.27;;;1.70;99.90;;;;;;5029132;28;20056;-85
2022/01/13 09:41:30;;;;;;;35.75;14.35;;;1.80;99.90;;;;;;5028075;28;20034;-84
2022/01/13 09:43:58;;;;;;;28.80;13.45;;;1.80;99.90;;;;;;5028985;28;20155;-87
2022/01/13 09:46:26;;;;;;;30.45;12.30;;;1.90;99.90;;;;;;5029318;28;20029;-83
2022/01/13 09:48:53;;;;;;;26.48;12.50;;;2.00;99.90;;;;;;5027799;28;20033;-83
2022/01/13 09:51:23;;;;;;;28.23;12.07;;;2.10;99.90;;;;;;5031230;28;20095;-83
2022/01/13 09:53:48;;;;;;;27.10;11.43;;;2.10;99.90;;;;;;5028785;28;20022;-88
2022/01/13 09:56:14;;;;;;;30.50;11.95;;;2.20;99.90;;;;;;5028150;28;20526;-85
2022/01/13 09:58:43;;;;;;;27.60;11.85;;;2.30;99.90;;;;;;5028622;28;20411;-81
2022/01/13 10:01:12;;;;;;;29.20;12.43;;;2.10;99.90;;;;;;5027990;28;20056;-81
2022/01/13 10:03:38;;;;;;;26.60;12.65;;;2.20;99.90;;;;;;5030237;28;20546;-83
2022/01/13 10:06:16;;;;;;;28.88;11.55;;;2.30;99.90;;;;;;5028632;28;20029;-85
2022/01/13 10:08:45;;;;;;;25.23;12.23;;;2.20;99.90;;;;;;5030010;28;20025;-87
2022/01/13 10:11:45;;;;;;;25.38;11.32;;;2.10;99.90;;;;;;5024966;28;20025;-86
2022/01/13 10:16:23;;;;;;;23.25;11.23;;;2.10;99.90;;;;;;5027694;28;20026;-86
2022/01/13 10:17:07;;;;;;;25.33;11.27;;;1.80;99.90;;;;;;5030251;28;20107;-88
2022/01/13 10:19:36;;;;;;;21.73;10.52;;;2.20;99.90;;;;;;5028631;28;20033;-89
2022/01/13 10:22:11;;;;;;;28.67;12.55;;;2.30;99.90;;;;;;5026103;28;20116;-88
2022/01/13 10:24:40;;;;;;;24.33;10.88;;;2.30;99.90;;;;;;5020597;28;20056;-90
2022/01/13 10:27:09;;;;;;;24.67;10.75;;;2.40;99.90;;;;;;5029614;28;20051;-88
2022/01/13 10:29:47;;;;;;;21.08;10.00;;;2.50;99.90;;;;;;5024448;28;20061;-84
2022/01/13 10:32:18;;;;;;;23.13;10.70;;;2.50;99.90;;;;;;5026621;28;20021;-84
2022/01/13 10:34:47;;;;;;;24.85;10.63;;;2.50;99.90;;;;;;5027493;28;20138;-84
2022/01/13 10:37:18;;;;;;;24.00;10.90;;;2.40;99.90;;;;;;5029052;28;20030;-84
2022/01/13 10:40:00;;;;;;;26.02;11.15;;;2.50;99.90;;;;;;5030177;28;20072;-83
2022/01/13 10:45:10;;;;;;;19.33;8.43;;;2.70;99.90;;;;;;5027962;28;20041;-86
2022/01/13 10:47:36;;;;;;;;;;;2.70;99.90;;;;;;5025804;28;20038;-84
2022/01/13 10:50:11;;;;;;;17.27;9.00;;;2.80;99.90;;;;;;5027793;28;19909;-84
2022/01/13 10:52:38;;;;;;;21.48;9.88;;;2.80;99.90;;;;;;5028425;28;20021;-87
2022/01/13 10:55:12;;;;;;;20.45;9.75;;;2.70;99.90;;;;;;5027280;28;20053;-83
2022/01/13 10:57:43;;;;;;;19.67;9.88;;;2.70;99.90;;;;;;5028947;28;20029;-84
2022/01/13 11:00:22;;;;;;;21.38;9.88;;;2.70;99.90;;;;;;5022503;28;20033;-85
2022/01/13 11:02:58;;;;;;;28.98;11.18;;;2.80;99.90;;;;;;5025076;28;20033;-84
2022/01/13 11:05:24;;;;;;;26.48;11.85;;;2.70;99.90;;;;;;5022914;28;20033;-85
2022/01/13 11:07:50;;;;;;;26.35;12.65;;;2.50;99.90;;;;;;5027958;28;20292;-83
2022/01/13 11:10:16;;;;;;;29.75;12.30;;;2.40;99.90;;;;;;5027328;28;20506;-85
2022/01/13 11:12:44;;;;;;;24.60;12.75;;;2.30;99.90;;;;;;5028148;28;20437;-86
2022/01/13 11:15:15;;;;;;;28.38;12.75;;;2.50;99.90;;;;;;5027327;28;20032;-86
2022/01/13 11:17:44;;;;;;;24.10;11.73;;;2.80;99.90;;;;;;5027779;28;20118;-84
2022/01/13 11:20:12;;;;;;;24.13;11.30;;;2.80;99.90;;;;;;5027251;28;20068;-78
2022/01/13 11:22:43;;;;;;;25.98;11.48;;;2.80;99.90;;;;;;5026457;28;20036;-89
2022/01/13 11:25:15;;;;;;;25.98;10.95;;;2.80;99.90;;;;;;5028729;28;20033;-88
2022/01/13 11:27:41;;;;;;;25.42;11.77;;;2.90;99.90;;;;;;5027469;28;20049;-87
2022/01/13 11:30:29;;;;;;;26.85;11.68;;;2.80;99.90;;;;;;5026470;28;20029;-86
2022/01/13 11:32:56;;;;;;;22.80;10.70;;;2.80;99.90;;;;;;5027082;28;20037;-87
2022/01/13 11:35:48;;;;;;;24.38;11.80;;;2.90;99.90;;;;;;5027608;28;20024;-84
2022/01/13 11:38:16;;;;;;;24.23;11.27;;;2.80;99.90;;;;;;5026353;28;20117;-86
2022/01/13 11:40:51;;;;;;;26.83;12.70;;;2.90;99.90;;;;;;5027474;28;20041;-85
2022/01/13 11:43:38;;;;;;;25.17;12.95;;;2.70;99.90;;;;;;5020666;28;20025;-85
2022/01/13 11:46:24;;;;;;;24.05;11.93;;;2.70;99.90;;;;;;5025474;28;20022;-79
2022/01/13 11:48:55;;;;;;;23.00;11.30;;;2.70;99.90;;;;;;5028520;28;20026;-79
2022/01/13 11:51:21;;;;;;;24.83;11.18;;;2.60;99.90;;;;;;5027864;28;20030;-80
2022/01/13 11:54:02;;;;;;;29.52;13.23;;;2.60;99.90;;;;;;5021269;28;20029;-80
2022/01/13 11:56:29;;;;;;;25.92;12.30;;;2.60;99.90;;;;;;5027364;28;20067;-80
2022/01/13 11:58:55;;;;;;;30.58;13.55;;;2.70;99.90;;;;;;5027045;28;20029;-81
2022/01/13 12:01:32;;;;;;;28.75;14.40;;;2.70;99.90;;;;;;5027610;28;20033;-80
2022/01/13 12:04:06;;;;;;;29.90;15.70;;;2.60;99.90;;;;;;5024581;28;20036;-81
2022/01/13 12:06:49;;;;;;;29.98;14.13;;;2.70;99.90;;;;;;5030187;28;20022;-81
2022/01/13 12:09:21;;;;;;;30.00;14.23;;;2.80;99.90;;;;;;5032809;28;20022;-81
2022/01/13 12:11:51;;;;;;;32.28;15.55;;;2.70;99.90;;;;;;5031234;28;20021;-81
2022/01/13 12:14:23;;;;;;;29.73;15.02;;;2.80;99.90;;;;;;5027777;28;20022;-81
2022/01/13 12:17:08;;;;;;;39.35;15.13;;;2.70;99.90;;;;;;5030729;28;20024;-81
2022/01/13 12:19:40;;;;;;;29.65;15.07;;;2.70;99.90;;;;;;5031266;28;20044;-82
2022/01/13 12:22:17;;;;;;;24.60;13.55;;;2.80;99.90;;;;;;5031240;28;20025;-82
2022/01/13 12:24:59;;;;;;;28.58;14.27;;;2.80;99.90;;;;;;5031631;28;20037;-80
2022/01/13 12:27:26;;;;;;;;;;;2.90;99.90;;;;;;5029882;28;20037;-80
2022/01/13 12:30:04;;;;;;;26.58;12.38;;;2.90;99.90;;;;;;5029602;28;19905;-80
2022/01/13 12:32:40;;;;;;;38.22;16.30;;;2.90;99.90;;;;;;5029420;28;20065;-86
2022/01/13 12:35:12;;;;;;;34.85;15.82;;;2.70;99.90;;;;;;5029409;28;20104;-84
2022/01/13 12:37:39;;;;;;;33.97;15.27;;;3.00;99.90;;;;;;5030140;28;20037;-85
2022/01/13 12:40:19;;;;;;;35.67;17.15;;;3.10;99.90;;;;;;5032077;28;20038;-90
2022/01/13 12:42:51;;;;;;;41.87;19.20;;;2.90;99.90;;;;;;5030546;28;20045;-87
2022/01/13 12:45:29;;;;;;;39.92;18.85;;;2.80;99.90;;;;;;5020755;28;20032;-85
2022/01/13 12:47:59;;;;;;;39.47;17.63;;;2.70;99.90;;;;;;5030392;28;20116;-89
2022/01/13 12:50:30;;;;;;;40.50;17.30;;;2.80;99.90;;;;;;5026486;28;20041;-89
2022/01/13 12:53:18;;;;;;;45.30;20.23;;;2.90;99.90;;;;;;5030198;28;20021;-88
2022/01/13 12:55:53;;;;;;;41.00;20.38;;;2.60;99.90;;;;;;5030494;28;20048;-84
2022/01/13 12:58:24;;;;;;;45.47;20.95;;;2.60;99.90;;;;;;5030756;28;20052;-83
2022/01/13 13:00:55;;;;;;;51.17;21.33;;;2.60;99.90;;;;;;5026881;28;20025;-86
2022/01/13 13:03:21;;;;;;;46.13;21.30;;;2.50;99.90;;;;;;5029161;28;20037;-85
2022/01/13 13:05:49;;;;;;;44.17;20.00;;;2.50;99.90;;;;;;5026118;28;20026;-85
2022/01/13 13:08:21;;;;;;;42.03;19.30;;;2.60;99.90;;;;;;5028505;28;20028;-86
2022/01/13 13:10:49;;;;;;;41.72;18.85;;;2.80;99.90;;;;;;5030494;28;20021;-84
2022/01/13 13:13:17;;;;;;;37.33;17.40;;;2.70;99.90;;;;;;5023776;28;20018;-83